Main page
METAR-TAF:

METAR-TAF

Airports :

San Marcos Regional Airport

San Marcos, Texas, United States

latitude: 29-53-37N, longitude: 097-51-53W, elevation: 597 ft

Current weather observation

The report was made 20 minutes ago, at 20:56 UTC
Wind 9 mph from the South/Southwest
Temperature 79°F
Humidity 70%
Pressure 29.80 in. Hg
Visibility: 10 miles
Overcast at a height of 2700 ft

METAR: KHYI 172056Z 20008KT 10SM OVC027 26/20 A2980 RMK AO2 SLP086 T02560200 58031

Time: 15:16 (21:16 UTC)


TAF: missing

Weather observations and forecasts of more than 4000 airports (METAR and TAF reports).

The available stations are represented by yellow and red dots on the map.

Hover mouse over dot to see the name of the station.

Then click to see weather observations and forecasts.

To change the map : click on the green buttons with a black cross to zoom in, on the green button with a dash to zoom out, or on the green arrows for adjacent maps.


METAR-TAF: